sensor_id;sensor_type;location;lat;lon;timestamp;P1;durP1;ratioP1;P2;durP2;ratioP2
4980;SDS011;2507;50.392;7.482;2024-02-26T00:01:22;2.10;;;2.00;;
4980;SDS011;2507;50.392;7.482;2024-02-26T00:03:48;2.40;;;2.20;;
4980;SDS011;2507;50.392;7.482;2024-02-26T00:06:13;1.40;;;1.30;;
4980;SDS011;2507;50.392;7.482;2024-02-26T00:08:38;1.47;;;1.37;;
4980;SDS011;2507;50.392;7.482;2024-02-26T00:11:03;1.17;;;1.07;;
4980;SDS011;2507;50.392;7.482;2024-02-26T00:13:29;1.57;;;1.57;;
4980;SDS011;2507;50.392;7.482;2024-02-26T00:15:54;1.20;;;1.20;;
4980;SDS011;2507;50.392;7.482;2024-02-26T00:18:19;1.60;;;1.50;;
4980;SDS011;2507;50.392;7.482;2024-02-26T00:20:44;2.40;;;1.40;;
4980;SDS011;2507;50.392;7.482;2024-02-26T00:23:10;1.80;;;1.30;;
4980;SDS011;2507;50.392;7.482;2024-02-26T00:25:35;2.10;;;1.20;;
4980;SDS011;2507;50.392;7.482;2024-02-26T00:28:02;1.73;;;1.63;;
4980;SDS011;2507;50.392;7.482;2024-02-26T00:30:28;1.60;;;1.40;;
4980;SDS011;2507;50.392;7.482;2024-02-26T00:32:53;1.33;;;1.33;;
4980;SDS011;2507;50.392;7.482;2024-02-26T00:35:18;1.83;;;1.73;;
4980;SDS011;2507;50.392;7.482;2024-02-26T00:37:45;2.33;;;2.20;;
4980;SDS011;2507;50.392;7.482;2024-02-26T00:40:11;1.97;;;1.87;;
4980;SDS011;2507;50.392;7.482;2024-02-26T00:42:36;2.03;;;1.70;;
4980;SDS011;2507;50.392;7.482;2024-02-26T00:45:01;1.50;;;1.40;;
4980;SDS011;2507;50.392;7.482;2024-02-26T00:47:27;2.33;;;2.13;;
4980;SDS011;2507;50.392;7.482;2024-02-26T00:49:52;1.73;;;1.73;;
4980;SDS011;2507;50.392;7.482;2024-02-26T00:52:17;2.50;;;1.90;;
4980;SDS011;2507;50.392;7.482;2024-02-26T00:54:43;1.57;;;1.57;;
4980;SDS011;2507;50.392;7.482;2024-02-26T00:57:08;1.40;;;1.17;;
4980;SDS011;2507;50.392;7.482;2024-02-26T00:59:33;1.90;;;1.67;;
4980;SDS011;2507;50.392;7.482;2024-02-26T01:01:58;3.97;;;1.80;;
4980;SDS011;2507;50.392;7.482;2024-02-26T01:04:26;1.50;;;1.40;;
4980;SDS011;2507;50.392;7.482;2024-02-26T01:06:52;1.43;;;1.33;;
4980;SDS011;2507;50.392;7.482;2024-02-26T01:09:17;1.33;;;1.33;;
4980;SDS011;2507;50.392;7.482;2024-02-26T01:11:43;1.53;;;1.43;;
4980;SDS011;2507;50.392;7.482;2024-02-26T01:14:08;1.60;;;1.50;;
4980;SDS011;2507;50.392;7.482;2024-02-26T01:16:33;1.30;;;1.13;;
4980;SDS011;2507;50.392;7.482;2024-02-26T01:18:58;1.30;;;1.30;;
4980;SDS011;2507;50.392;7.482;2024-02-26T01:21:24;1.00;;;1.00;;
4980;SDS011;2507;50.392;7.482;2024-02-26T01:23:49;1.30;;;1.20;;
4980;SDS011;2507;50.392;7.482;2024-02-26T01:26:14;0.97;;;0.97;;
4980;SDS011;2507;50.392;7.482;2024-02-26T01:28:39;2.10;;;1.03;;
4980;SDS011;2507;50.392;7.482;2024-02-26T01:31:05;1.40;;;1.30;;
4980;SDS011;2507;50.392;7.482;2024-02-26T01:33:32;1.13;;;1.13;;
4980;SDS011;2507;50.392;7.482;2024-02-26T01:35:58;1.27;;;1.27;;
4980;SDS011;2507;50.392;7.482;2024-02-26T01:38:23;1.10;;;1.07;;
4980;SDS011;2507;50.392;7.482;2024-02-26T01:40:48;0.87;;;0.87;;
4980;SDS011;2507;50.392;7.482;2024-02-26T01:43:13;1.23;;;1.13;;
4980;SDS011;2507;50.392;7.482;2024-02-26T01:45:39;2.10;;;1.03;;
4980;SDS011;2507;50.392;7.482;2024-02-26T01:48:04;1.60;;;1.60;;
4980;SDS011;2507;50.392;7.482;2024-02-26T01:50:30;0.93;;;0.93;;
4980;SDS011;2507;50.392;7.482;2024-02-26T01:52:55;1.20;;;1.20;;
4980;SDS011;2507;50.392;7.482;2024-02-26T01:55:22;1.40;;;1.30;;
4980;SDS011;2507;50.392;7.482;2024-02-26T01:57:49;1.03;;;1.03;;
4980;SDS011;2507;50.392;7.482;2024-02-26T02:00:16;0.90;;;0.90;;
4980;SDS011;2507;50.392;7.482;2024-02-26T02:02:43;1.10;;;1.00;;
4980;SDS011;2507;50.392;7.482;2024-02-26T02:05:12;1.70;;;1.60;;
4980;SDS011;2507;50.392;7.482;2024-02-26T02:07:39;1.30;;;1.30;;
4980;SDS011;2507;50.392;7.482;2024-02-26T02:10:06;1.10;;;1.10;;
4980;SDS011;2507;50.392;7.482;2024-02-26T02:12:32;1.70;;;1.07;;
4980;SDS011;2507;50.392;7.482;2024-02-26T02:14:59;1.10;;;1.10;;
4980;SDS011;2507;50.392;7.482;2024-02-26T02:17:24;1.03;;;0.93;;
4980;SDS011;2507;50.392;7.482;2024-02-26T02:19:50;0.83;;;0.83;;
4980;SDS011;2507;50.392;7.482;2024-02-26T02:22:15;1.30;;;1.30;;
4980;SDS011;2507;50.392;7.482;2024-02-26T02:24:40;1.43;;;1.20;;
4980;SDS011;2507;50.392;7.482;2024-02-26T02:27:06;1.20;;;1.20;;
4980;SDS011;2507;50.392;7.482;2024-02-26T02:29:31;1.30;;;1.20;;
4980;SDS011;2507;50.392;7.482;2024-02-26T02:31:56;0.90;;;0.90;;
4980;SDS011;2507;50.392;7.482;2024-02-26T02:34:22;1.23;;;1.23;;
4980;SDS011;2507;50.392;7.482;2024-02-26T02:36:48;0.90;;;0.90;;
4980;SDS011;2507;50.392;7.482;2024-02-26T02:39:15;1.23;;;1.07;;
4980;SDS011;2507;50.392;7.482;2024-02-26T02:41:40;1.10;;;1.10;;
4980;SDS011;2507;50.392;7.482;2024-02-26T02:44:06;1.20;;;1.20;;
4980;SDS011;2507;50.392;7.482;2024-02-26T02:46:31;1.27;;;1.27;;
4980;SDS011;2507;50.392;7.482;2024-02-26T02:48:58;1.00;;;1.00;;
4980;SDS011;2507;50.392;7.482;2024-02-26T02:51:23;0.83;;;0.83;;
4980;SDS011;2507;50.392;7.482;2024-02-26T02:53:49;0.90;;;0.90;;
4980;SDS011;2507;50.392;7.482;2024-02-26T02:56:14;1.10;;;1.10;;
4980;SDS011;2507;50.392;7.482;2024-02-26T02:58:39;3.23;;;1.17;;
4980;SDS011;2507;50.392;7.482;2024-02-26T03:01:04;0.80;;;0.80;;
4980;SDS011;2507;50.392;7.482;2024-02-26T03:03:30;1.40;;;1.10;;
4980;SDS011;2507;50.392;7.482;2024-02-26T03:05:55;1.50;;;1.40;;
4980;SDS011;2507;50.392;7.482;2024-02-26T03:08:21;1.00;;;1.00;;
4980;SDS011;2507;50.392;7.482;2024-02-26T03:10:46;1.37;;;1.17;;
4980;SDS011;2507;50.392;7.482;2024-02-26T03:13:11;2.30;;;1.37;;
4980;SDS011;2507;50.392;7.482;2024-02-26T03:15:36;1.83;;;1.07;;
4980;SDS011;2507;50.392;7.482;2024-02-26T03:18:02;1.20;;;1.10;;
4980;SDS011;2507;50.392;7.482;2024-02-26T03:20:27;1.77;;;1.20;;
4980;SDS011;2507;50.392;7.482;2024-02-26T03:22:52;1.33;;;1.23;;
4980;SDS011;2507;50.392;7.482;2024-02-26T03:25:17;1.10;;;1.10;;
4980;SDS011;2507;50.392;7.482;2024-02-26T03:27:43;1.27;;;1.27;;
4980;SDS011;2507;50.392;7.482;2024-02-26T03:30:09;1.10;;;1.10;;
4980;SDS011;2507;50.392;7.482;2024-02-26T03:32:35;1.10;;;1.10;;
4980;SDS011;2507;50.392;7.482;2024-02-26T03:35:00;1.20;;;1.20;;
4980;SDS011;2507;50.392;7.482;2024-02-26T03:37:25;1.57;;;1.50;;
4980;SDS011;2507;50.392;7.482;2024-02-26T03:39:50;1.30;;;1.20;;
4980;SDS011;2507;50.392;7.482;2024-02-26T03:42:16;1.40;;;1.30;;
4980;SDS011;2507;50.392;7.482;2024-02-26T03:44:42;2.43;;;1.63;;
4980;SDS011;2507;50.392;7.482;2024-02-26T03:47:07;3.40;;;1.37;;
4980;SDS011;2507;50.392;7.482;2024-02-26T03:49:32;1.63;;;1.57;;
4980;SDS011;2507;50.392;7.482;2024-02-26T03:51:57;1.50;;;1.40;;
4980;SDS011;2507;50.392;7.482;2024-02-26T03:54:23;1.33;;;1.23;;
4980;SDS011;2507;50.392;7.482;2024-02-26T03:56:48;2.03;;;1.97;;
4980;SDS011;2507;50.392;7.482;2024-02-26T03:59:13;2.13;;;2.03;;
4980;SDS011;2507;50.392;7.482;2024-02-26T04:01:38;1.70;;;1.70;;
4980;SDS011;2507;50.392;7.482;2024-02-26T04:04:04;2.13;;;2.03;;
4980;SDS011;2507;50.392;7.482;2024-02-26T04:06:29;3.10;;;2.90;;
4980;SDS011;2507;50.392;7.482;2024-02-26T04:08:54;3.20;;;2.63;;
4980;SDS011;2507;50.392;7.482;2024-02-26T04:11:19;2.17;;;2.07;;
4980;SDS011;2507;50.392;7.482;2024-02-26T04:13:45;2.50;;;2.40;;
4980;SDS011;2507;50.392;7.482;2024-02-26T04:16:11;2.77;;;2.57;;
4980;SDS011;2507;50.392;7.482;2024-02-26T04:18:37;2.90;;;2.70;;
4980;SDS011;2507;50.392;7.482;2024-02-26T04:21:03;2.10;;;2.00;;
4980;SDS011;2507;50.392;7.482;2024-02-26T04:23:30;2.43;;;2.33;;
4980;SDS011;2507;50.392;7.482;2024-02-26T04:25:55;2.33;;;2.23;;
4980;SDS011;2507;50.392;7.482;2024-02-26T04:28:20;2.10;;;2.10;;
4980;SDS011;2507;50.392;7.482;2024-02-26T04:30:47;3.00;;;2.30;;
4980;SDS011;2507;50.392;7.482;2024-02-26T04:33:13;1.77;;;1.67;;
4980;SDS011;2507;50.392;7.482;2024-02-26T04:35:38;4.73;;;4.23;;
4980;SDS011;2507;50.392;7.482;2024-02-26T04:38:03;4.83;;;4.40;;
4980;SDS011;2507;50.392;7.482;2024-02-26T04:40:29;3.47;;;3.17;;
4980;SDS011;2507;50.392;7.482;2024-02-26T04:42:54;4.30;;;3.90;;
4980;SDS011;2507;50.392;7.482;2024-02-26T04:45:19;3.03;;;2.63;;
4980;SDS011;2507;50.392;7.482;2024-02-26T04:47:44;4.60;;;4.20;;
4980;SDS011;2507;50.392;7.482;2024-02-26T04:50:10;5.53;;;5.03;;
4980;SDS011;2507;50.392;7.482;2024-02-26T04:52:35;6.07;;;5.47;;
4980;SDS011;2507;50.392;7.482;2024-02-26T04:55:01;6.03;;;4.90;;
4980;SDS011;2507;50.392;7.482;2024-02-26T04:57:26;3.80;;;3.30;;
4980;SDS011;2507;50.392;7.482;2024-02-26T04:59:52;5.33;;;3.23;;
4980;SDS011;2507;50.392;7.482;2024-02-26T05:02:17;3.10;;;3.00;;
4980;SDS011;2507;50.392;7.482;2024-02-26T05:04:42;2.70;;;2.60;;
4980;SDS011;2507;50.392;7.482;2024-02-26T05:07:08;1.70;;;1.70;;
4980;SDS011;2507;50.392;7.482;2024-02-26T05:09:33;2.60;;;2.40;;
4980;SDS011;2507;50.392;7.482;2024-02-26T05:12:00;1.97;;;1.97;;
4980;SDS011;2507;50.392;7.482;2024-02-26T05:14:25;2.03;;;1.90;;
4980;SDS011;2507;50.392;7.482;2024-02-26T05:16:50;2.37;;;2.27;;
4980;SDS011;2507;50.392;7.482;2024-02-26T05:19:15;2.10;;;2.00;;
4980;SDS011;2507;50.392;7.482;2024-02-26T05:21:41;2.97;;;2.10;;
4980;SDS011;2507;50.392;7.482;2024-02-26T05:24:07;1.73;;;1.73;;
4980;SDS011;2507;50.392;7.482;2024-02-26T05:26:33;3.83;;;3.53;;
4980;SDS011;2507;50.392;7.482;2024-02-26T05:28:58;9.00;;;7.40;;
4980;SDS011;2507;50.392;7.482;2024-02-26T05:31:24;4.30;;;4.07;;
4980;SDS011;2507;50.392;7.482;2024-02-26T05:33:50;6.60;;;6.10;;
4980;SDS011;2507;50.392;7.482;2024-02-26T05:36:18;3.77;;;3.13;;
4980;SDS011;2507;50.392;7.482;2024-02-26T05:38:44;2.47;;;2.27;;
4980;SDS011;2507;50.392;7.482;2024-02-26T05:41:11;2.13;;;2.00;;
4980;SDS011;2507;50.392;7.482;2024-02-26T05:43:36;3.10;;;2.50;;
4980;SDS011;2507;50.392;7.482;2024-02-26T05:46:02;1.90;;;1.90;;
4980;SDS011;2507;50.392;7.482;2024-02-26T05:48:27;1.60;;;1.50;;
4980;SDS011;2507;50.392;7.482;2024-02-26T05:50:53;1.83;;;1.73;;
4980;SDS011;2507;50.392;7.482;2024-02-26T05:53:18;2.13;;;1.80;;
4980;SDS011;2507;50.392;7.482;2024-02-26T05:55:43;1.93;;;1.80;;
4980;SDS011;2507;50.392;7.482;2024-02-26T05:58:08;2.20;;;1.80;;
4980;SDS011;2507;50.392;7.482;2024-02-26T06:00:34;2.00;;;1.90;;
4980;SDS011;2507;50.392;7.482;2024-02-26T06:03:00;3.07;;;2.33;;
4980;SDS011;2507;50.392;7.482;2024-02-26T06:05:27;2.30;;;2.10;;
4980;SDS011;2507;50.392;7.482;2024-02-26T06:07:52;4.60;;;2.10;;
4980;SDS011;2507;50.392;7.482;2024-02-26T06:10:17;2.20;;;2.10;;
4980;SDS011;2507;50.392;7.482;2024-02-26T06:12:46;2.50;;;2.40;;
4980;SDS011;2507;50.392;7.482;2024-02-26T06:15:11;3.10;;;2.90;;
4980;SDS011;2507;50.392;7.482;2024-02-26T06:17:37;2.70;;;2.50;;
4980;SDS011;2507;50.392;7.482;2024-02-26T06:20:02;2.20;;;2.10;;
4980;SDS011;2507;50.392;7.482;2024-02-26T06:22:29;2.20;;;2.10;;
4980;SDS011;2507;50.392;7.482;2024-02-26T06:24:54;2.43;;;2.33;;
4980;SDS011;2507;50.392;7.482;2024-02-26T06:27:20;2.10;;;2.00;;
4980;SDS011;2507;50.392;7.482;2024-02-26T06:29:46;2.60;;;2.43;;
4980;SDS011;2507;50.392;7.482;2024-02-26T06:32:12;2.50;;;2.40;;
4980;SDS011;2507;50.392;7.482;2024-02-26T06:34:38;2.40;;;2.30;;
4980;SDS011;2507;50.392;7.482;2024-02-26T06:37:05;2.30;;;2.20;;
4980;SDS011;2507;50.392;7.482;2024-02-26T06:39:31;2.63;;;2.43;;
4980;SDS011;2507;50.392;7.482;2024-02-26T06:41:56;2.17;;;2.07;;
4980;SDS011;2507;50.392;7.482;2024-02-26T06:44:25;2.50;;;2.40;;
4980;SDS011;2507;50.392;7.482;2024-02-26T06:46:56;2.50;;;2.40;;
4980;SDS011;2507;50.392;7.482;2024-02-26T06:49:21;2.50;;;2.10;;
4980;SDS011;2507;50.392;7.482;2024-02-26T06:51:47;3.00;;;2.80;;
4980;SDS011;2507;50.392;7.482;2024-02-26T06:54:12;3.37;;;3.03;;
4980;SDS011;2507;50.392;7.482;2024-02-26T06:56:37;3.10;;;3.00;;
4980;SDS011;2507;50.392;7.482;2024-02-26T06:59:02;2.60;;;2.50;;
4980;SDS011;2507;50.392;7.482;2024-02-26T07:01:28;4.57;;;3.60;;
4980;SDS011;2507;50.392;7.482;2024-02-26T07:03:53;3.03;;;2.83;;
4980;SDS011;2507;50.392;7.482;2024-02-26T07:06:18;2.73;;;2.60;;
4980;SDS011;2507;50.392;7.482;2024-02-26T07:08:43;3.37;;;3.13;;
4980;SDS011;2507;50.392;7.482;2024-02-26T07:11:10;3.20;;;3.00;;
4980;SDS011;2507;50.392;7.482;2024-02-26T07:13:35;2.77;;;2.63;;
4980;SDS011;2507;50.392;7.482;2024-02-26T07:16:00;3.43;;;2.70;;
4980;SDS011;2507;50.392;7.482;2024-02-26T07:18:26;3.63;;;3.43;;
4980;SDS011;2507;50.392;7.482;2024-02-26T07:20:51;3.03;;;2.93;;
4980;SDS011;2507;50.392;7.482;2024-02-26T07:23:16;3.30;;;3.00;;
4980;SDS011;2507;50.392;7.482;2024-02-26T07:25:42;3.00;;;2.80;;
4980;SDS011;2507;50.392;7.482;2024-02-26T07:28:09;3.30;;;3.00;;
4980;SDS011;2507;50.392;7.482;2024-02-26T07:30:34;2.77;;;2.57;;
4980;SDS011;2507;50.392;7.482;2024-02-26T07:32:59;4.27;;;3.97;;
4980;SDS011;2507;50.392;7.482;2024-02-26T07:35:25;3.23;;;2.90;;
4980;SDS011;2507;50.392;7.482;2024-02-26T07:37:50;4.33;;;3.87;;
4980;SDS011;2507;50.392;7.482;2024-02-26T07:40:16;3.80;;;3.60;;
4980;SDS011;2507;50.392;7.482;2024-02-26T07:42:41;4.23;;;4.00;;
4980;SDS011;2507;50.392;7.482;2024-02-26T07:45:06;4.13;;;3.93;;
4980;SDS011;2507;50.392;7.482;2024-02-26T07:47:32;4.53;;;4.00;;
4980;SDS011;2507;50.392;7.482;2024-02-26T07:49:59;4.37;;;4.07;;
4980;SDS011;2507;50.392;7.482;2024-02-26T07:52:24;3.97;;;3.73;;
4980;SDS011;2507;50.392;7.482;2024-02-26T07:54:50;5.63;;;4.20;;
4980;SDS011;2507;50.392;7.482;2024-02-26T07:57:15;4.83;;;4.07;;
4980;SDS011;2507;50.392;7.482;2024-02-26T07:59:42;5.40;;;4.90;;
4980;SDS011;2507;50.392;7.482;2024-02-26T08:02:07;6.17;;;5.60;;
4980;SDS011;2507;50.392;7.482;2024-02-26T08:04:32;5.87;;;5.27;;
4980;SDS011;2507;50.392;7.482;2024-02-26T08:06:58;5.27;;;4.77;;
4980;SDS011;2507;50.392;7.482;2024-02-26T08:09:23;9.70;;;6.47;;
4980;SDS011;2507;50.392;7.482;2024-02-26T08:11:48;6.70;;;5.83;;
4980;SDS011;2507;50.392;7.482;2024-02-26T08:14:13;9.50;;;6.60;;
4980;SDS011;2507;50.392;7.482;2024-02-26T08:16:39;9.70;;;6.63;;
4980;SDS011;2507;50.392;7.482;2024-02-26T08:19:04;5.63;;;5.13;;
4980;SDS011;2507;50.392;7.482;2024-02-26T08:21:29;4.50;;;4.17;;
4980;SDS011;2507;50.392;7.482;2024-02-26T08:23:54;8.03;;;4.80;;
4980;SDS011;2507;50.392;7.482;2024-02-26T08:26:20;6.37;;;5.27;;
4980;SDS011;2507;50.392;7.482;2024-02-26T08:28:47;4.90;;;4.40;;
4980;SDS011;2507;50.392;7.482;2024-02-26T08:31:14;4.30;;;3.90;;
4980;SDS011;2507;50.392;7.482;2024-02-26T08:33:39;5.17;;;4.77;;
4980;SDS011;2507;50.392;7.482;2024-02-26T08:36:05;5.27;;;4.87;;
4980;SDS011;2507;50.392;7.482;2024-02-26T08:38:31;3.97;;;3.77;;
4980;SDS011;2507;50.392;7.482;2024-02-26T08:40:56;4.27;;;3.87;;
4980;SDS011;2507;50.392;7.482;2024-02-26T08:43:21;4.50;;;3.77;;
4980;SDS011;2507;50.392;7.482;2024-02-26T08:45:46;3.70;;;3.40;;
4980;SDS011;2507;50.392;7.482;2024-02-26T08:48:12;4.20;;;3.90;;
4980;SDS011;2507;50.392;7.482;2024-02-26T08:50:37;5.70;;;5.20;;
4980;SDS011;2507;50.392;7.482;2024-02-26T08:53:02;4.17;;;3.87;;
4980;SDS011;2507;50.392;7.482;2024-02-26T08:55:29;3.87;;;3.50;;
4980;SDS011;2507;50.392;7.482;2024-02-26T08:57:54;3.90;;;3.60;;
4980;SDS011;2507;50.392;7.482;2024-02-26T09:00:19;4.20;;;3.90;;
4980;SDS011;2507;50.392;7.482;2024-02-26T09:02:45;3.30;;;3.10;;
4980;SDS011;2507;50.392;7.482;2024-02-26T09:05:11;3.60;;;3.47;;
4980;SDS011;2507;50.392;7.482;2024-02-26T09:07:37;4.10;;;3.70;;
4980;SDS011;2507;50.392;7.482;2024-02-26T09:10:02;3.70;;;3.50;;
4980;SDS011;2507;50.392;7.482;2024-02-26T09:12:27;3.33;;;3.23;;
4980;SDS011;2507;50.392;7.482;2024-02-26T09:14:53;4.10;;;3.90;;
4980;SDS011;2507;50.392;7.482;2024-02-26T09:17:20;3.57;;;3.30;;
4980;SDS011;2507;50.392;7.482;2024-02-26T09:19:45;3.60;;;3.40;;
4980;SDS011;2507;50.392;7.482;2024-02-26T09:22:11;3.77;;;3.57;;
4980;SDS011;2507;50.392;7.482;2024-02-26T09:24:36;5.43;;;4.90;;
4980;SDS011;2507;50.392;7.482;2024-02-26T09:27:01;3.70;;;3.50;;
4980;SDS011;2507;50.392;7.482;2024-02-26T09:29:27;4.63;;;4.37;;
4980;SDS011;2507;50.392;7.482;2024-02-26T09:31:52;4.40;;;4.10;;
4980;SDS011;2507;50.392;7.482;2024-02-26T09:34:17;4.47;;;4.17;;
4980;SDS011;2507;50.392;7.482;2024-02-26T09:36:43;5.70;;;5.30;;
4980;SDS011;2507;50.392;7.482;2024-02-26T09:39:08;3.33;;;3.20;;
4980;SDS011;2507;50.392;7.482;2024-02-26T09:41:36;4.00;;;3.80;;
4980;SDS011;2507;50.392;7.482;2024-02-26T09:44:02;3.63;;;3.40;;
4980;SDS011;2507;50.392;7.482;2024-02-26T09:46:29;5.03;;;4.63;;
4980;SDS011;2507;50.392;7.482;2024-02-26T09:48:55;3.83;;;3.53;;
4980;SDS011;2507;50.392;7.482;2024-02-26T09:51:22;4.17;;;3.77;;
4980;SDS011;2507;50.392;7.482;2024-02-26T09:53:49;6.47;;;5.90;;
4980;SDS011;2507;50.392;7.482;2024-02-26T09:56:16;4.07;;;3.80;;
4980;SDS011;2507;50.392;7.482;2024-02-26T09:58:42;3.27;;;3.07;;
4980;SDS011;2507;50.392;7.482;2024-02-26T10:01:11;2.60;;;2.50;;
4980;SDS011;2507;50.392;7.482;2024-02-26T10:03:39;5.07;;;4.60;;
4980;SDS011;2507;50.392;7.482;2024-02-26T10:06:07;4.13;;;3.83;;
4980;SDS011;2507;50.392;7.482;2024-02-26T10:08:33;3.87;;;3.53;;
4980;SDS011;2507;50.392;7.482;2024-02-26T10:11:00;3.10;;;3.00;;
4980;SDS011;2507;50.392;7.482;2024-02-26T10:13:25;3.17;;;2.97;;
4980;SDS011;2507;50.392;7.482;2024-02-26T10:15:51;3.10;;;2.90;;
4980;SDS011;2507;50.392;7.482;2024-02-26T10:18:16;3.87;;;3.60;;
4980;SDS011;2507;50.392;7.482;2024-02-26T10:20:41;3.90;;;3.70;;
4980;SDS011;2507;50.392;7.482;2024-02-26T10:23:07;4.07;;;3.80;;
4980;SDS011;2507;50.392;7.482;2024-02-26T10:25:32;4.60;;;4.20;;
4980;SDS011;2507;50.392;7.482;2024-02-26T10:28:01;4.50;;;4.20;;
4980;SDS011;2507;50.392;7.482;2024-02-26T10:30:29;3.03;;;2.87;;
4980;SDS011;2507;50.392;7.482;2024-02-26T10:32:55;3.50;;;3.20;;
4980;SDS011;2507;50.392;7.482;2024-02-26T10:35:21;3.57;;;3.30;;
4980;SDS011;2507;50.392;7.482;2024-02-26T10:37:47;5.07;;;3.77;;
4980;SDS011;2507;50.392;7.482;2024-02-26T10:40:14;4.20;;;3.93;;
4980;SDS011;2507;50.392;7.482;2024-02-26T10:42:40;4.60;;;3.33;;
4980;SDS011;2507;50.392;7.482;2024-02-26T10:45:06;4.30;;;3.23;;
4980;SDS011;2507;50.392;7.482;2024-02-26T10:47:34;3.67;;;3.40;;
4980;SDS011;2507;50.392;7.482;2024-02-26T10:50:01;3.53;;;3.33;;
4980;SDS011;2507;50.392;7.482;2024-02-26T10:52:27;3.40;;;2.97;;
4980;SDS011;2507;50.392;7.482;2024-02-26T10:55:00;3.17;;;2.97;;
4980;SDS011;2507;50.392;7.482;2024-02-26T10:57:27;3.13;;;2.93;;
4980;SDS011;2507;50.392;7.482;2024-02-26T10:59:57;3.33;;;3.03;;
4980;SDS011;2507;50.392;7.482;2024-02-26T11:02:23;3.07;;;2.97;;
4980;SDS011;2507;50.392;7.482;2024-02-26T11:04:49;3.03;;;2.93;;
4980;SDS011;2507;50.392;7.482;2024-02-26T11:07:15;3.37;;;3.17;;
4980;SDS011;2507;50.392;7.482;2024-02-26T11:09:40;3.10;;;3.00;;
4980;SDS011;2507;50.392;7.482;2024-02-26T11:12:10;3.77;;;3.50;;
4980;SDS011;2507;50.392;7.482;2024-02-26T11:14:37;4.13;;;3.73;;
4980;SDS011;2507;50.392;7.482;2024-02-26T11:17:04;3.70;;;3.50;;
4980;SDS011;2507;50.392;7.482;2024-02-26T11:19:32;3.53;;;3.33;;
4980;SDS011;2507;50.392;7.482;2024-02-26T11:22:01;4.23;;;3.90;;
4980;SDS011;2507;50.392;7.482;2024-02-26T11:24:26;4.50;;;4.20;;
4980;SDS011;2507;50.392;7.482;2024-02-26T11:26:53;3.63;;;3.37;;
4980;SDS011;2507;50.392;7.482;2024-02-26T11:29:24;4.43;;;4.10;;
4980;SDS011;2507;50.392;7.482;2024-02-26T11:31:52;4.40;;;3.90;;
4980;SDS011;2507;50.392;7.482;2024-02-26T11:34:18;6.93;;;6.23;;
4980;SDS011;2507;50.392;7.482;2024-02-26T11:36:43;4.60;;;4.30;;
4980;SDS011;2507;50.392;7.482;2024-02-26T11:39:10;6.97;;;5.90;;
4980;SDS011;2507;50.392;7.482;2024-02-26T11:41:37;4.80;;;4.50;;
4980;SDS011;2507;50.392;7.482;2024-02-26T11:44:03;6.73;;;5.90;;
4980;SDS011;2507;50.392;7.482;2024-02-26T11:46:32;5.30;;;4.83;;
4980;SDS011;2507;50.392;7.482;2024-02-26T11:51:52;4.67;;;4.37;;
4980;SDS011;2507;50.392;7.482;2024-02-26T11:57:03;4.43;;;4.13;;
4980;SDS011;2507;50.392;7.482;2024-02-26T11:59:38;4.50;;;3.97;;
4980;SDS011;2507;50.392;7.482;2024-02-26T12:02:04;4.33;;;3.97;;
4980;SDS011;2507;50.392;7.482;2024-02-26T12:04:29;4.33;;;4.03;;
4980;SDS011;2507;50.392;7.482;2024-02-26T12:06:56;3.80;;;3.60;;
4980;SDS011;2507;50.392;7.482;2024-02-26T12:09:34;4.10;;;3.80;;
4980;SDS011;2507;50.392;7.482;2024-02-26T12:12:10;4.57;;;4.20;;
4980;SDS011;2507;50.392;7.482;2024-02-26T12:14:39;6.20;;;4.03;;
4980;SDS011;2507;50.392;7.482;2024-02-26T12:17:06;4.67;;;4.37;;
4980;SDS011;2507;50.392;7.482;2024-02-26T12:19:40;5.17;;;4.80;;
4980;SDS011;2507;50.392;7.482;2024-02-26T12:22:06;5.47;;;4.97;;
4980;SDS011;2507;50.392;7.482;2024-02-26T12:24:33;4.87;;;4.47;;
4980;SDS011;2507;50.392;7.482;2024-02-26T12:26:58;5.43;;;5.00;;
4980;SDS011;2507;50.392;7.482;2024-02-26T12:29:23;4.33;;;3.93;;
4980;SDS011;2507;50.392;7.482;2024-02-26T12:31:49;4.60;;;4.20;;
4980;SDS011;2507;50.392;7.482;2024-02-26T12:34:14;5.00;;;4.57;;
4980;SDS011;2507;50.392;7.482;2024-02-26T12:36:41;5.67;;;5.17;;
4980;SDS011;2507;50.392;7.482;2024-02-26T12:39:07;6.00;;;5.50;;
4980;SDS011;2507;50.392;7.482;2024-02-26T12:41:33;4.80;;;4.50;;
4980;SDS011;2507;50.392;7.482;2024-02-26T12:43:59;5.70;;;5.20;;
4980;SDS011;2507;50.392;7.482;2024-02-26T12:46:24;4.30;;;4.07;;
4980;SDS011;2507;50.392;7.482;2024-02-26T12:48:49;6.27;;;4.53;;
4980;SDS011;2507;50.392;7.482;2024-02-26T12:51:15;5.97;;;5.43;;
4980;SDS011;2507;50.392;7.482;2024-02-26T12:53:42;5.20;;;4.70;;
4980;SDS011;2507;50.392;7.482;2024-02-26T12:56:08;6.27;;;5.60;;
4980;SDS011;2507;50.392;7.482;2024-02-26T12:58:35;4.77;;;4.37;;
4980;SDS011;2507;50.392;7.482;2024-02-26T13:01:03;4.10;;;3.90;;
4980;SDS011;2507;50.392;7.482;2024-02-26T13:03:29;5.27;;;4.83;;
4980;SDS011;2507;50.392;7.482;2024-02-26T13:05:55;5.00;;;4.60;;
4980;SDS011;2507;50.392;7.482;2024-02-26T13:08:21;5.07;;;4.67;;
4980;SDS011;2507;50.392;7.482;2024-02-26T13:10:46;5.23;;;4.87;;
4980;SDS011;2507;50.392;7.482;2024-02-26T13:13:14;5.00;;;4.57;;
4980;SDS011;2507;50.392;7.482;2024-02-26T13:15:41;4.73;;;4.33;;
4980;SDS011;2507;50.392;7.482;2024-02-26T13:18:15;5.70;;;4.33;;
4980;SDS011;2507;50.392;7.482;2024-02-26T13:20:41;5.17;;;4.70;;
4980;SDS011;2507;50.392;7.482;2024-02-26T13:23:07;5.80;;;5.30;;
4980;SDS011;2507;50.392;7.482;2024-02-26T13:25:35;5.37;;;4.97;;
4980;SDS011;2507;50.392;7.482;2024-02-26T13:28:07;4.97;;;4.13;;
4980;SDS011;2507;50.392;7.482;2024-02-26T13:30:37;17.33;;;12.73;;
4980;SDS011;2507;50.392;7.482;2024-02-26T13:33:09;4.87;;;4.47;;
4980;SDS011;2507;50.392;7.482;2024-02-26T13:35:35;5.30;;;4.50;;
4980;SDS011;2507;50.392;7.482;2024-02-26T13:38:01;5.90;;;5.40;;
4980;SDS011;2507;50.392;7.482;2024-02-26T13:40:27;4.87;;;4.47;;
4980;SDS011;2507;50.392;7.482;2024-02-26T13:42:54;7.13;;;6.53;;
4980;SDS011;2507;50.392;7.482;2024-02-26T13:45:19;10.20;;;8.17;;
4980;SDS011;2507;50.392;7.482;2024-02-26T13:47:44;5.37;;;4.97;;
4980;SDS011;2507;50.392;7.482;2024-02-26T13:50:09;7.10;;;6.37;;
4980;SDS011;2507;50.392;7.482;2024-02-26T13:52:35;6.73;;;6.03;;
4980;SDS011;2507;50.392;7.482;2024-02-26T13:55:00;5.67;;;5.27;;
4980;SDS011;2507;50.392;7.482;2024-02-26T13:57:27;6.27;;;5.67;;
4980;SDS011;2507;50.392;7.482;2024-02-26T13:59:52;5.07;;;4.67;;
4980;SDS011;2507;50.392;7.482;2024-02-26T14:02:18;4.47;;;4.07;;
4980;SDS011;2507;50.392;7.482;2024-02-26T14:04:43;5.27;;;4.87;;
4980;SDS011;2507;50.392;7.482;2024-02-26T14:07:09;11.43;;;4.10;;
4980;SDS011;2507;50.392;7.482;2024-02-26T14:09:36;4.00;;;3.80;;
4980;SDS011;2507;50.392;7.482;2024-02-26T14:12:01;4.07;;;3.77;;
4980;SDS011;2507;50.392;7.482;2024-02-26T14:14:27;4.50;;;4.10;;
4980;SDS011;2507;50.392;7.482;2024-02-26T14:16:53;3.97;;;3.77;;
4980;SDS011;2507;50.392;7.482;2024-02-26T14:19:18;3.80;;;3.50;;
4980;SDS011;2507;50.392;7.482;2024-02-26T14:21:43;4.43;;;4.13;;
4980;SDS011;2507;50.392;7.482;2024-02-26T14:24:08;4.17;;;3.87;;
4980;SDS011;2507;50.392;7.482;2024-02-26T14:26:34;4.20;;;3.90;;
4980;SDS011;2507;50.392;7.482;2024-02-26T14:28:59;4.50;;;4.10;;
4980;SDS011;2507;50.392;7.482;2024-02-26T14:31:24;4.80;;;4.27;;
4980;SDS011;2507;50.392;7.482;2024-02-26T14:33:50;4.60;;;4.30;;
4980;SDS011;2507;50.392;7.482;2024-02-26T14:36:18;4.00;;;3.70;;
4980;SDS011;2507;50.392;7.482;2024-02-26T14:38:43;4.67;;;4.23;;
4980;SDS011;2507;50.392;7.482;2024-02-26T14:41:08;4.33;;;3.93;;
4980;SDS011;2507;50.392;7.482;2024-02-26T14:43:35;4.63;;;4.23;;
4980;SDS011;2507;50.392;7.482;2024-02-26T14:46:00;4.10;;;3.80;;
4980;SDS011;2507;50.392;7.482;2024-02-26T14:48:26;3.60;;;3.40;;
4980;SDS011;2507;50.392;7.482;2024-02-26T14:50:51;4.00;;;3.70;;
4980;SDS011;2507;50.392;7.482;2024-02-26T14:53:17;3.73;;;3.43;;
4980;SDS011;2507;50.392;7.482;2024-02-26T14:55:42;3.17;;;2.97;;
4980;SDS011;2507;50.392;7.482;2024-02-26T14:58:08;4.83;;;4.43;;
4980;SDS011;2507;50.392;7.482;2024-02-26T15:00:35;3.67;;;3.47;;
4980;SDS011;2507;50.392;7.482;2024-02-26T15:03:01;4.10;;;3.70;;
4980;SDS011;2507;50.392;7.482;2024-02-26T15:05:26;3.80;;;3.40;;
4980;SDS011;2507;50.392;7.482;2024-02-26T15:07:51;3.97;;;3.57;;
4980;SDS011;2507;50.392;7.482;2024-02-26T15:10:16;4.57;;;4.17;;
4980;SDS011;2507;50.392;7.482;2024-02-26T15:12:42;4.50;;;4.10;;